createdAt,value
2017-07-15T00:00:21.882Z,0
2017-07-15T00:01:02.422Z,0
2017-07-15T00:01:42.965Z,0
2017-07-15T00:02:23.498Z,0
2017-07-15T00:03:04.031Z,0
2017-07-15T00:03:44.574Z,0
2017-07-15T00:04:25.107Z,0
2017-07-15T00:05:05.645Z,0
2017-07-15T00:05:46.187Z,0
2017-07-15T00:06:26.721Z,0
2017-07-15T00:07:07.264Z,0
2017-07-15T00:07:47.801Z,0
2017-07-15T00:08:28.349Z,0
2017-07-15T00:09:08.891Z,0
2017-07-15T00:09:49.424Z,0
2017-07-15T00:10:29.960Z,0
2017-07-15T00:11:10.498Z,0
2017-07-15T00:11:51.038Z,0
2017-07-15T00:12:31.570Z,0
2017-07-15T00:13:12.107Z,0
2017-07-15T00:13:52.649Z,0
2017-07-15T00:14:33.184Z,0
2017-07-15T00:15:13.719Z,0
2017-07-15T00:15:54.258Z,0
2017-07-15T00:16:34.796Z,0
2017-07-15T00:17:15.334Z,0
2017-07-15T00:17:55.869Z,0
2017-07-15T00:18:36.409Z,0
2017-07-15T00:19:16.954Z,0
2017-07-15T00:19:57.480Z,0
2017-07-15T00:20:38.018Z,0
2017-07-15T00:21:18.570Z,0
2017-07-15T00:21:59.108Z,0
2017-07-15T00:22:39.647Z,0
2017-07-15T00:23:20.185Z,0
2017-07-15T00:24:00.723Z,0
2017-07-15T00:24:41.270Z,0
2017-07-15T00:25:21.815Z,0
2017-07-15T00:26:02.346Z,0
2017-07-15T00:26:42.896Z,0
2017-07-15T00:27:23.427Z,0
2017-07-15T00:28:03.964Z,0
2017-07-15T00:28:44.509Z,0
2017-07-15T00:29:25.048Z,0
2017-07-15T00:30:05.593Z,0
2017-07-15T00:30:46.130Z,0
2017-07-15T00:31:26.668Z,0
2017-07-15T00:32:07.237Z,0
2017-07-15T00:32:47.777Z,0
2017-07-15T00:33:28.316Z,0
2017-07-15T00:34:08.857Z,0
2017-07-15T00:34:49.390Z,0
2017-07-15T00:35:29.927Z,0
2017-07-15T00:36:10.464Z,0
2017-07-15T00:36:51.004Z,0
2017-07-15T00:37:31.535Z,0
2017-07-15T00:38:12.079Z,0
2017-07-15T00:38:52.618Z,0
2017-07-15T00:39:33.158Z,0
2017-07-15T00:40:13.696Z,0
2017-07-15T00:40:54.237Z,0
2017-07-15T00:41:34.770Z,0
2017-07-15T00:42:15.331Z,0
2017-07-15T00:42:55.873Z,0
2017-07-15T00:43:36.418Z,0
2017-07-15T00:44:16.959Z,0
2017-07-15T00:44:57.489Z,0
2017-07-15T00:45:38.034Z,0
2017-07-15T00:46:18.574Z,0
2017-07-15T00:46:59.109Z,0
2017-07-15T00:47:39.648Z,0
2017-07-15T00:48:20.184Z,0
2017-07-15T00:49:00.727Z,0
2017-07-15T00:49:41.268Z,0
2017-07-15T00:50:21.810Z,0
2017-07-15T00:51:02.351Z,0
2017-07-15T00:51:42.891Z,0
2017-07-15T00:52:23.421Z,0
2017-07-15T00:53:03.961Z,0
2017-07-15T00:53:44.500Z,0
2017-07-15T00:54:25.037Z,0
2017-07-15T00:55:05.580Z,0
2017-07-15T00:55:46.120Z,0
2017-07-15T00:56:26.659Z,0
2017-07-15T00:57:07.198Z,0
2017-07-15T00:57:47.735Z,0
2017-07-15T00:58:28.276Z,0
2017-07-15T00:59:08.817Z,0
2017-07-15T00:59:49.348Z,0
2017-07-15T01:00:29.884Z,0
2017-07-15T01:01:10.419Z,0
2017-07-15T01:01:50.957Z,0
2017-07-15T01:02:31.500Z,0
2017-07-15T01:03:12.043Z,0
2017-07-15T01:03:52.583Z,0
2017-07-15T01:04:33.116Z,0
2017-07-15T01:05:13.651Z,0
2017-07-15T01:05:54.190Z,0
2017-07-15T01:06:34.728Z,0
2017-07-15T01:07:15.267Z,0
2017-07-15T01:07:55.805Z,0
2017-07-15T01:08:36.347Z,0
2017-07-15T01:09:16.892Z,0
2017-07-15T01:09:57.414Z,0
2017-07-15T01:10:37.947Z,0
2017-07-15T01:11:18.494Z,0
2017-07-15T01:11:59.033Z,0
2017-07-15T01:12:39.570Z,0
2017-07-15T01:13:20.109Z,0
2017-07-15T01:14:00.641Z,0
2017-07-15T01:14:41.183Z,0
2017-07-15T01:15:21.718Z,0
2017-07-15T01:16:02.291Z,0
2017-07-15T01:16:42.833Z,0
2017-07-15T01:17:23.365Z,0
2017-07-15T01:18:03.894Z,0
2017-07-15T01:18:44.434Z,0
2017-07-15T01:19:24.985Z,0
2017-07-15T01:20:05.517Z,0
2017-07-15T01:20:46.086Z,0
2017-07-15T01:21:26.578Z,0
2017-07-15T01:22:07.115Z,0
2017-07-15T01:22:47.655Z,0
2017-07-15T01:23:28.192Z,0
2017-07-15T01:24:08.730Z,0
2017-07-15T01:24:49.268Z,0
2017-07-15T01:25:29.803Z,0
2017-07-15T01:26:10.349Z,0
2017-07-15T01:26:50.883Z,0
2017-07-15T01:27:31.422Z,0
2017-07-15T01:28:11.962Z,0
2017-07-15T01:28:52.500Z,0
2017-07-15T01:29:33.036Z,0
2017-07-15T01:30:13.575Z,0
2017-07-15T01:30:54.114Z,0
2017-07-15T01:31:34.656Z,0
2017-07-15T01:32:15.194Z,0
2017-07-15T01:32:55.727Z,0
2017-07-15T01:33:36.266Z,0
2017-07-15T01:34:16.814Z,0
2017-07-15T01:34:57.355Z,0
2017-07-15T01:35:37.897Z,0
2017-07-15T01:36:18.440Z,0
2017-07-15T01:36:58.982Z,0
2017-07-15T01:37:39.507Z,0
2017-07-15T01:38:20.090Z,0
2017-07-15T01:39:00.630Z,0
2017-07-15T01:39:41.162Z,0
2017-07-15T01:40:21.695Z,0
2017-07-15T01:41:02.234Z,0
2017-07-15T01:41:42.770Z,0
2017-07-15T01:42:23.308Z,0
2017-07-15T01:43:03.846Z,0
2017-07-15T01:43:44.390Z,0
2017-07-15T01:44:24.915Z,0
2017-07-15T01:45:05.454Z,0
2017-07-15T01:45:45.994Z,0
2017-07-15T01:46:26.530Z,0
2017-07-15T01:47:07.070Z,0
2017-07-15T01:47:47.611Z,0
2017-07-15T01:48:28.156Z,0
2017-07-15T01:49:08.693Z,0
2017-07-15T01:49:49.226Z,0
2017-07-15T01:50:29.758Z,0
2017-07-15T01:51:10.292Z,0
2017-07-15T01:51:50.830Z,0
2017-07-15T01:52:31.372Z,0
2017-07-15T01:53:11.906Z,0
2017-07-15T01:53:52.441Z,0
2017-07-15T01:54:32.988Z,0
2017-07-15T01:55:13.528Z,0
2017-07-15T01:55:54.067Z,0
2017-07-15T01:56:34.604Z,0
2017-07-15T01:57:15.145Z,0
2017-07-15T01:57:55.681Z,0
2017-07-15T01:58:36.224Z,0
2017-07-15T01:59:16.767Z,0
2017-07-15T01:59:57.301Z,0
2017-07-15T02:00:37.844Z,0
2017-07-15T02:01:18.380Z,0
2017-07-15T02:01:58.918Z,0
2017-07-15T02:02:39.460Z,0
2017-07-15T02:03:20.000Z,0
2017-07-15T02:04:00.539Z,0
2017-07-15T02:04:41.077Z,0
2017-07-15T02:05:21.615Z,0
2017-07-15T02:06:02.155Z,0
2017-07-15T02:06:42.754Z,0
2017-07-15T02:07:23.297Z,0
2017-07-15T02:08:03.830Z,0
2017-07-15T02:08:44.394Z,0
2017-07-15T02:09:24.933Z,0
2017-07-15T02:10:05.475Z,0
2017-07-15T02:10:46.012Z,0
2017-07-15T02:11:26.557Z,0
2017-07-15T02:12:07.077Z,0
2017-07-15T02:12:47.611Z,0
2017-07-15T02:13:28.151Z,0
2017-07-15T02:14:08.691Z,0
2017-07-15T02:14:49.226Z,0
2017-07-15T02:15:29.766Z,0
2017-07-15T02:16:10.306Z,0
2017-07-15T02:16:50.840Z,0
2017-07-15T02:17:31.377Z,0
2017-07-15T02:18:11.914Z,0
2017-07-15T02:18:52.456Z,0
2017-07-15T02:19:32.994Z,0
2017-07-15T02:20:13.532Z,0
2017-07-15T02:20:54.071Z,0
2017-07-15T02:21:34.612Z,0
2017-07-15T02:22:15.150Z,0
2017-07-15T02:22:55.678Z,0
2017-07-15T02:23:36.218Z,0
2017-07-15T02:24:16.761Z,0
2017-07-15T02:24:57.299Z,0
2017-07-15T02:25:37.829Z,0
2017-07-15T02:26:18.387Z,0
2017-07-15T02:26:58.908Z,0
2017-07-15T02:27:39.448Z,0
2017-07-15T02:28:19.986Z,0
2017-07-15T02:29:00.523Z,0
2017-07-15T02:29:41.067Z,0
2017-07-15T02:30:21.606Z,0
2017-07-15T02:31:02.142Z,0
2017-07-15T02:31:42.683Z,0
2017-07-15T02:32:23.221Z,0
2017-07-15T02:33:03.765Z,0
2017-07-15T02:33:44.302Z,0
2017-07-15T02:34:24.929Z,0
2017-07-15T02:35:05.475Z,0
2017-07-15T02:35:46.014Z,0
2017-07-15T02:36:26.544Z,0
2017-07-15T02:37:07.092Z,0
2017-07-15T02:37:47.629Z,0
2017-07-15T02:38:28.170Z,0
2017-07-15T02:39:08.709Z,0
2017-07-15T02:39:49.251Z,0
2017-07-15T02:40:29.787Z,0
2017-07-15T02:41:10.330Z,0
2017-07-15T02:41:50.872Z,0
2017-07-15T02:42:31.406Z,0
2017-07-15T02:43:11.945Z,0
2017-07-15T02:43:52.484Z,0
2017-07-15T02:44:33.028Z,0
2017-07-15T02:45:13.565Z,0
2017-07-15T02:45:54.102Z,0
2017-07-15T02:46:34.642Z,0
2017-07-15T02:47:15.186Z,0
2017-07-15T02:47:55.726Z,0
2017-07-15T02:48:36.279Z,0
2017-07-15T02:49:16.822Z,0
2017-07-15T02:49:57.364Z,0
2017-07-15T02:50:37.900Z,0
2017-07-15T02:51:18.431Z,0
2017-07-15T02:51:58.973Z,0
2017-07-15T02:52:39.511Z,0
2017-07-15T02:53:20.052Z,0
2017-07-15T02:54:00.590Z,0
2017-07-15T02:54:41.124Z,0
2017-07-15T02:55:21.670Z,0
2017-07-15T02:56:02.198Z,0
2017-07-15T02:56:42.758Z,0
2017-07-15T02:57:23.296Z,0
2017-07-15T02:58:03.838Z,0
2017-07-15T02:58:44.459Z,0
2017-07-15T02:59:24.996Z,0
2017-07-15T03:00:05.533Z,0
2017-07-15T03:00:46.077Z,0
2017-07-15T03:01:26.612Z,4
2017-07-15T03:02:07.151Z,4
2017-07-15T03:02:47.699Z,4
2017-07-15T03:03:28.237Z,4
2017-07-15T03:04:08.773Z,0
2017-07-15T03:04:49.313Z,0
2017-07-15T03:05:29.855Z,4
2017-07-15T03:06:10.395Z,4
2017-07-15T03:06:50.932Z,4
2017-07-15T03:07:31.470Z,4
2017-07-15T03:08:12.000Z,4
2017-07-15T03:08:52.541Z,4
2017-07-15T03:09:33.079Z,8
2017-07-15T03:10:13.620Z,4
2017-07-15T03:10:54.163Z,4
2017-07-15T03:11:34.702Z,8
2017-07-15T03:12:15.238Z,4
2017-07-15T03:12:55.786Z,8
2017-07-15T03:13:36.327Z,12
2017-07-15T03:14:16.865Z,8
2017-07-15T03:14:57.404Z,12
2017-07-15T03:15:37.947Z,12
2017-07-15T03:16:18.479Z,12
2017-07-15T03:16:59.017Z,12
2017-07-15T03:17:39.557Z,16
2017-07-15T03:18:20.095Z,16
2017-07-15T03:19:00.632Z,16
2017-07-15T03:19:41.165Z,20
2017-07-15T03:20:21.703Z,20
2017-07-15T03:21:02.252Z,28
2017-07-15T03:21:42.778Z,28
2017-07-15T03:22:23.321Z,32
2017-07-15T03:23:03.873Z,32
2017-07-15T03:23:44.426Z,36
2017-07-15T03:24:24.965Z,36
2017-07-15T03:25:05.508Z,40
2017-07-15T03:25:46.050Z,44
2017-07-15T03:26:26.582Z,44
2017-07-15T03:27:07.118Z,48
2017-07-15T03:27:47.646Z,52
2017-07-15T03:28:28.187Z,60
2017-07-15T03:29:08.730Z,60
2017-07-15T03:29:49.267Z,68
2017-07-15T03:30:29.804Z,72
2017-07-15T03:31:10.343Z,76
2017-07-15T03:31:50.890Z,84
2017-07-15T03:32:31.421Z,88
2017-07-15T03:33:11.955Z,96
2017-07-15T03:33:52.490Z,100
2017-07-15T03:34:33.033Z,112
2017-07-15T03:35:13.573Z,120
2017-07-15T03:35:54.122Z,128
2017-07-15T03:36:34.683Z,136
2017-07-15T03:37:15.215Z,144
2017-07-15T03:37:55.750Z,152
2017-07-15T03:38:36.290Z,164
2017-07-15T03:39:16.834Z,176
2017-07-15T03:39:57.370Z,184
2017-07-15T03:40:37.904Z,196
2017-07-15T03:41:18.441Z,204
2017-07-15T03:41:58.983Z,216
2017-07-15T03:42:39.525Z,224
2017-07-15T03:43:20.068Z,236
2017-07-15T03:44:00.606Z,244
2017-07-15T03:44:41.136Z,252
2017-07-15T03:45:21.670Z,256
2017-07-15T03:46:02.214Z,268
2017-07-15T03:46:42.757Z,280
2017-07-15T03:47:23.298Z,292
2017-07-15T03:48:03.834Z,296
2017-07-15T03:48:44.370Z,304
2017-07-15T03:49:24.906Z,316
2017-07-15T03:50:05.440Z,328
2017-07-15T03:50:45.977Z,332
2017-07-15T03:51:26.511Z,332
2017-07-15T03:52:07.051Z,344
2017-07-15T03:52:47.598Z,352
2017-07-15T03:53:28.137Z,372
2017-07-15T03:54:08.682Z,384
2017-07-15T03:54:49.230Z,400
2017-07-15T03:55:29.769Z,416
2017-07-15T03:56:10.363Z,428
2017-07-15T03:56:50.939Z,448
2017-07-15T03:57:31.477Z,468
2017-07-15T03:58:12.017Z,488
2017-07-15T03:58:52.556Z,504
2017-07-15T03:59:33.098Z,524
2017-07-15T04:00:13.646Z,548
2017-07-15T04:00:54.188Z,572
2017-07-15T04:01:34.733Z,592
2017-07-15T04:02:15.270Z,612
2017-07-15T04:02:55.810Z,644
2017-07-15T04:03:36.353Z,672
2017-07-15T04:04:16.894Z,700
2017-07-15T04:04:57.435Z,724
2017-07-15T04:05:37.976Z,756
2017-07-15T04:06:18.591Z,788
2017-07-15T04:06:59.131Z,808
2017-07-15T04:07:39.675Z,824
2017-07-15T04:08:20.212Z,836
2017-07-15T04:09:00.753Z,860
2017-07-15T04:09:41.291Z,864
2017-07-15T04:10:21.835Z,860
2017-07-15T04:11:02.371Z,864
2017-07-15T04:11:42.905Z,860
2017-07-15T04:12:23.446Z,864
2017-07-15T04:13:03.988Z,876
2017-07-15T04:13:44.522Z,892
2017-07-15T04:14:25.059Z,900
2017-07-15T04:15:05.608Z,900
2017-07-15T04:15:46.140Z,912
2017-07-15T04:16:26.676Z,952
2017-07-15T04:17:07.219Z,988
2017-07-15T04:17:47.757Z,1016
2017-07-15T04:18:28.303Z,1032
2017-07-15T04:19:08.856Z,1068
2017-07-15T04:19:49.395Z,1132
2017-07-15T04:20:29.934Z,1184
2017-07-15T04:21:10.473Z,1220
2017-07-15T04:21:51.005Z,1244
2017-07-15T04:22:31.542Z,1292
2017-07-15T04:23:12.096Z,1316
2017-07-15T04:23:52.634Z,1328
2017-07-15T04:24:33.173Z,1368
2017-07-15T04:25:13.703Z,1428
2017-07-15T04:25:54.239Z,1460
2017-07-15T04:26:34.778Z,1476
2017-07-15T04:27:15.322Z,1444
2017-07-15T04:27:55.854Z,1408
2017-07-15T04:28:36.393Z,1364
2017-07-15T04:29:16.936Z,1348
2017-07-15T04:29:57.477Z,1340
2017-07-15T04:30:38.008Z,1340
2017-07-15T04:31:18.536Z,1392
2017-07-15T04:31:59.077Z,1464
2017-07-15T04:32:39.610Z,1524
2017-07-15T04:33:20.156Z,1552
2017-07-15T04:34:00.698Z,1560
2017-07-15T04:34:41.213Z,1568
2017-07-15T04:35:21.730Z,1584
2017-07-15T04:36:02.240Z,1628
2017-07-15T04:36:42.750Z,1652
2017-07-15T04:37:23.303Z,1628
2017-07-15T04:38:03.818Z,1608
2017-07-15T04:38:44.362Z,1580
2017-07-15T04:39:24.890Z,1556
2017-07-15T04:40:05.402Z,1544
2017-07-15T04:40:45.948Z,1536
2017-07-15T04:41:26.478Z,1528
2017-07-15T04:42:07.037Z,1536
2017-07-15T04:42:47.572Z,1532
2017-07-15T04:43:28.113Z,1488
2017-07-15T04:44:08.651Z,1516
2017-07-15T04:44:49.190Z,1524
2017-07-15T04:45:29.749Z,1536
2017-07-15T04:46:10.282Z,1564
2017-07-15T04:46:50.780Z,1576
2017-07-15T04:47:31.306Z,1604
2017-07-15T04:48:11.822Z,1620
2017-07-15T04:48:52.331Z,1644
2017-07-15T04:49:32.843Z,1668
2017-07-15T04:50:13.368Z,1716
2017-07-15T04:50:53.876Z,1780
2017-07-15T04:51:34.401Z,1828
2017-07-15T04:52:14.929Z,1828
2017-07-15T04:52:55.444Z,1788
2017-07-15T04:53:35.966Z,1768
2017-07-15T04:54:16.510Z,1748
2017-07-15T04:54:57.046Z,1744
2017-07-15T04:55:37.548Z,1732
2017-07-15T04:56:18.088Z,1716
2017-07-15T04:56:58.607Z,1704
2017-07-15T04:57:39.135Z,1708
2017-07-15T04:58:19.675Z,1724
2017-07-15T04:59:00.219Z,1748
2017-07-15T04:59:40.734Z,1796
2017-07-15T05:00:21.273Z,1788
2017-07-15T05:01:01.808Z,1764
2017-07-15T05:01:42.368Z,1700
2017-07-15T05:02:22.875Z,1620
2017-07-15T05:03:03.406Z,1572
2017-07-15T05:03:44.130Z,1552
2017-07-15T05:04:24.647Z,1544
2017-07-15T05:05:05.179Z,1600
2017-07-15T05:05:45.685Z,1700
2017-07-15T05:06:26.195Z,1832
2017-07-15T05:07:06.697Z,1964
2017-07-15T05:07:47.216Z,2152
2017-07-15T05:08:27.759Z,2272
2017-07-15T05:09:08.267Z,2364
2017-07-15T05:09:48.782Z,2464
2017-07-15T05:10:29.334Z,2484
2017-07-15T05:11:09.816Z,2552
2017-07-15T05:11:50.330Z,2556
2017-07-15T05:12:31.392Z,2504
2017-07-15T05:13:11.923Z,2404
2017-07-15T05:13:52.470Z,2352
2017-07-15T05:14:32.940Z,2324
2017-07-15T05:15:13.462Z,2308
2017-07-15T05:15:53.986Z,2328
2017-07-15T05:16:34.541Z,2376
2017-07-15T05:17:15.040Z,2396
2017-07-15T05:17:55.563Z,2456
2017-07-15T05:18:36.093Z,2660
2017-07-15T05:19:16.611Z,2840
2017-07-15T05:19:57.130Z,2632
2017-07-15T05:20:37.653Z,2364
2017-07-15T05:21:18.194Z,2164
2017-07-15T05:21:58.697Z,2100
2017-07-15T05:22:39.244Z,1984
2017-07-15T05:23:19.783Z,1856
2017-07-15T05:24:00.301Z,1788
2017-07-15T05:24:40.825Z,1780
2017-07-15T05:25:21.389Z,1792
2017-07-15T05:26:01.919Z,1828
2017-07-15T05:26:42.441Z,1852
2017-07-15T05:27:23.001Z,1852
2017-07-15T05:28:03.546Z,1848
2017-07-15T05:28:44.084Z,1840
2017-07-15T05:29:24.620Z,1816
2017-07-15T05:30:05.182Z,1780
2017-07-15T05:30:45.694Z,1728
2017-07-15T05:31:26.200Z,1696
2017-07-15T05:32:06.741Z,1688
2017-07-15T05:32:47.295Z,1696
2017-07-15T05:33:27.817Z,1688
2017-07-15T05:34:08.351Z,1668
2017-07-15T05:34:48.899Z,1644
2017-07-15T05:35:29.405Z,1620
2017-07-15T05:36:09.949Z,1612
2017-07-15T05:36:50.494Z,1620
2017-07-15T05:37:31.042Z,1688
2017-07-15T05:38:11.617Z,1736
2017-07-15T05:38:52.149Z,1704
2017-07-15T05:39:32.689Z,1612
2017-07-15T05:40:13.237Z,1660
2017-07-15T05:40:53.777Z,1684
2017-07-15T05:41:34.318Z,1572
2017-07-15T05:42:14.889Z,1528
2017-07-15T05:42:55.427Z,1560
2017-07-15T05:43:35.965Z,1616
2017-07-15T05:44:16.500Z,1704
2017-07-15T05:44:57.045Z,1800
2017-07-15T05:45:37.587Z,1892
2017-07-15T05:46:18.126Z,2004
2017-07-15T05:46:58.664Z,2160
2017-07-15T05:47:39.204Z,2336
2017-07-15T05:48:19.740Z,2492
2017-07-15T05:49:00.309Z,2576
2017-07-15T05:49:40.859Z,2572
2017-07-15T05:50:21.393Z,2548
2017-07-15T05:51:01.939Z,2520
2017-07-15T05:51:42.474Z,2520
2017-07-15T05:52:23.012Z,2524
2017-07-15T05:53:03.656Z,2532
2017-07-15T05:53:44.410Z,2548
2017-07-15T05:54:25.022Z,2612
2017-07-15T05:55:05.561Z,2692
2017-07-15T05:55:46.100Z,2696
2017-07-15T05:56:26.638Z,2560
2017-07-15T05:57:07.170Z,2392
2017-07-15T05:57:47.716Z,2248
2017-07-15T05:58:28.258Z,2152
2017-07-15T05:59:08.798Z,2124
2017-07-15T05:59:49.337Z,2264
2017-07-15T06:00:29.880Z,2400
2017-07-15T06:01:10.420Z,2444
2017-07-15T06:01:50.961Z,2432
2017-07-15T06:02:31.506Z,2332
2017-07-15T06:03:12.054Z,2304
2017-07-15T06:03:52.595Z,2372
2017-07-15T06:04:33.142Z,2420
2017-07-15T06:05:13.667Z,2500
2017-07-15T06:05:54.209Z,2608
2017-07-15T06:06:34.745Z,2720
2017-07-15T06:07:15.287Z,2776
2017-07-15T06:07:55.823Z,2904
2017-07-15T06:08:36.365Z,2840
2017-07-15T06:09:16.899Z,2820
2017-07-15T06:09:57.425Z,2892
2017-07-15T06:10:37.964Z,2988
2017-07-15T06:11:18.511Z,3068
2017-07-15T06:11:59.049Z,3140
2017-07-15T06:12:39.592Z,3196
2017-07-15T06:13:20.140Z,3512
2017-07-15T06:14:00.685Z,3544
2017-07-15T06:14:41.226Z,3620
2017-07-15T06:15:21.757Z,3700
2017-07-15T06:16:02.296Z,3704
2017-07-15T06:16:42.837Z,3628
2017-07-15T06:17:23.376Z,3572
2017-07-15T06:18:03.938Z,3588
2017-07-15T06:18:44.454Z,3552
2017-07-15T06:19:24.998Z,3456
2017-07-15T06:20:05.536Z,3336
2017-07-15T06:20:46.066Z,3296
2017-07-15T06:21:26.608Z,3304
2017-07-15T06:22:07.151Z,3296
2017-07-15T06:22:47.691Z,3340
2017-07-15T06:23:28.234Z,3572
2017-07-15T06:24:08.770Z,3832
2017-07-15T06:24:49.307Z,3964
2017-07-15T06:25:29.853Z,4100
2017-07-15T06:26:10.402Z,4024
2017-07-15T06:26:50.942Z,3964
2017-07-15T06:27:31.487Z,4020
2017-07-15T06:28:12.032Z,3888
2017-07-15T06:28:52.572Z,4076
2017-07-15T06:29:33.116Z,4272
2017-07-15T06:30:13.656Z,4572
2017-07-15T06:30:54.191Z,5040
2017-07-15T06:31:34.730Z,5420
2017-07-15T06:32:15.275Z,5604
2017-07-15T06:32:55.821Z,5940
2017-07-15T06:33:36.350Z,6144
2017-07-15T06:34:16.893Z,6084
2017-07-15T06:34:57.426Z,6072
2017-07-15T06:35:37.963Z,6160
2017-07-15T06:36:18.504Z,6084
2017-07-15T06:36:59.048Z,6128
2017-07-15T06:37:39.585Z,6236
2017-07-15T06:38:20.125Z,6348
2017-07-15T06:39:00.668Z,6424
2017-07-15T06:39:41.215Z,6424
2017-07-15T06:40:21.754Z,6496
2017-07-15T06:41:02.296Z,6404
2017-07-15T06:41:42.834Z,6272
2017-07-15T06:42:23.385Z,6188
2017-07-15T06:43:03.935Z,6152
2017-07-15T06:43:44.499Z,6056
2017-07-15T06:44:25.038Z,6056
2017-07-15T06:45:05.576Z,6144
2017-07-15T06:45:46.116Z,6080
2017-07-15T06:46:26.659Z,5964
2017-07-15T06:47:07.202Z,5904
2017-07-15T06:47:47.738Z,5816
2017-07-15T06:48:28.278Z,5628
2017-07-15T06:49:08.820Z,5396
2017-07-15T06:49:49.360Z,5184
2017-07-15T06:50:29.908Z,4956
2017-07-15T06:51:10.443Z,4800
2017-07-15T06:51:50.992Z,4728
2017-07-15T06:52:31.539Z,4788
2017-07-15T06:53:12.029Z,4916
2017-07-15T06:53:52.574Z,5180
2017-07-15T06:54:33.098Z,5416
2017-07-15T06:55:13.646Z,5696
2017-07-15T06:55:54.189Z,5844
2017-07-15T06:56:34.731Z,5948
2017-07-15T06:57:15.269Z,6020
2017-07-15T06:57:55.794Z,5952
2017-07-15T06:58:36.330Z,5780
2017-07-15T06:59:16.866Z,5744
2017-07-15T06:59:57.406Z,5736
2017-07-15T07:00:37.950Z,5676
2017-07-15T07:01:18.480Z,5552
2017-07-15T07:01:59.399Z,5556
2017-07-15T07:02:40.003Z,5920
2017-07-15T07:03:20.540Z,5932
2017-07-15T07:04:01.272Z,5776
2017-07-15T07:04:41.800Z,6324
2017-07-15T07:05:22.314Z,6488
2017-07-15T07:06:02.874Z,5824
2017-07-15T07:06:43.492Z,4752
2017-07-15T07:07:24.023Z,3904
2017-07-15T07:08:04.565Z,3440
2017-07-15T07:08:45.374Z,3192
2017-07-15T07:09:25.862Z,3324
2017-07-15T07:10:06.629Z,3408
2017-07-15T07:10:47.082Z,3628
2017-07-15T07:11:27.625Z,3872
2017-07-15T07:12:08.171Z,4076
2017-07-15T07:12:49.636Z,4160
2017-07-15T07:13:29.501Z,4356
2017-07-15T07:14:10.244Z,4432
2017-07-15T07:14:50.811Z,4432
2017-07-15T07:15:31.353Z,4484
2017-07-15T07:16:11.892Z,4576
2017-07-15T07:16:52.676Z,4700
2017-07-15T07:17:33.220Z,4828
2017-07-15T07:18:13.768Z,4892
2017-07-15T07:18:54.293Z,5048
2017-07-15T07:19:34.823Z,5336
2017-07-15T07:20:15.359Z,5488
2017-07-15T07:20:55.984Z,5760
2017-07-15T07:21:37.545Z,5972
2017-07-15T07:22:18.143Z,6064
2017-07-15T07:22:59.544Z,6068
2017-07-15T07:23:40.068Z,6280
2017-07-15T07:24:20.615Z,6548
2017-07-15T07:25:01.153Z,6856
2017-07-15T07:25:41.676Z,7192
2017-07-15T07:26:22.213Z,7708
2017-07-15T07:27:02.756Z,8452
2017-07-15T07:27:43.305Z,8404
2017-07-15T07:28:23.846Z,8500
2017-07-15T07:29:04.367Z,8664
2017-07-15T07:29:44.900Z,8724
2017-07-15T07:30:25.422Z,8736
2017-07-15T07:31:05.934Z,8540
2017-07-15T07:31:46.465Z,8388
2017-07-15T07:32:27.007Z,8060
2017-07-15T07:33:07.555Z,8008
2017-07-15T07:33:48.075Z,8132
2017-07-15T07:34:28.616Z,7880
2017-07-15T07:35:09.148Z,6964
2017-07-15T07:35:49.681Z,5748
2017-07-15T07:36:30.216Z,5024
2017-07-15T07:37:10.761Z,4772
2017-07-15T07:37:51.300Z,5016
2017-07-15T07:38:31.865Z,5272
2017-07-15T07:39:12.621Z,5756
2017-07-15T07:39:53.320Z,5664
2017-07-15T07:40:33.919Z,4792
2017-07-15T07:41:14.441Z,4032
2017-07-15T07:41:54.986Z,3504
2017-07-15T07:42:35.524Z,3360
2017-07-15T07:43:16.078Z,3188
2017-07-15T07:43:57.208Z,2996
2017-07-15T07:44:38.258Z,3244
2017-07-15T07:45:18.799Z,3372
2017-07-15T07:45:59.341Z,3108
2017-07-15T07:46:39.881Z,2844
2017-07-15T07:47:20.417Z,2640
2017-07-15T07:48:00.964Z,2668
2017-07-15T07:48:41.502Z,3072
2017-07-15T07:49:22.050Z,3788
2017-07-15T07:50:02.596Z,4364
2017-07-15T07:50:43.177Z,4588
2017-07-15T07:51:23.721Z,4624
2017-07-15T07:52:04.264Z,5060
2017-07-15T07:52:44.812Z,5316
2017-07-15T07:53:25.362Z,6200
2017-07-15T07:54:05.910Z,6692
2017-07-15T07:54:46.453Z,7396
2017-07-15T07:55:26.969Z,7016
2017-07-15T07:56:07.507Z,7184
2017-07-15T07:56:48.139Z,7520
2017-07-15T07:57:28.579Z,9712
2017-07-15T07:58:09.157Z,9236
2017-07-15T07:58:49.693Z,8336
2017-07-15T07:59:30.222Z,6972
2017-07-15T08:00:10.755Z,7428
2017-07-15T08:00:51.295Z,7436
2017-07-15T08:01:31.831Z,6980
2017-07-15T08:02:12.370Z,6236
2017-07-15T08:02:52.909Z,6480
2017-07-15T08:03:33.453Z,7036
2017-07-15T08:04:13.996Z,6740
2017-07-15T08:04:54.541Z,6960
2017-07-15T08:05:35.078Z,6936
2017-07-15T08:06:15.624Z,7660
2017-07-15T08:06:56.170Z,8344
2017-07-15T08:07:36.714Z,9324
2017-07-15T08:08:17.244Z,9348
2017-07-15T08:08:57.798Z,10532
2017-07-15T08:09:38.340Z,9304
2017-07-15T08:10:18.890Z,9004
2017-07-15T08:10:59.420Z,7912
2017-07-15T08:11:39.961Z,7156
2017-07-15T08:12:20.500Z,7064
2017-07-15T08:13:01.043Z,6872
2017-07-15T08:13:41.583Z,7520
2017-07-15T08:14:22.125Z,8420
2017-07-15T08:15:02.672Z,9184
2017-07-15T08:15:43.220Z,10124
2017-07-15T08:16:23.766Z,9972
2017-07-15T08:17:04.310Z,9752
2017-07-15T08:17:44.858Z,9844
2017-07-15T08:18:25.395Z,10076
2017-07-15T08:19:05.939Z,11408
2017-07-15T08:19:46.517Z,13140
2017-07-15T08:20:27.032Z,13756
2017-07-15T08:21:07.570Z,15828
2017-07-15T08:21:48.113Z,15880
2017-07-15T08:22:28.660Z,17120
2017-07-15T08:23:09.202Z,31840
2017-07-15T08:23:49.740Z,38112
2017-07-15T08:24:30.288Z,35392
2017-07-15T08:25:10.835Z,40704
2017-07-15T08:25:51.378Z,21568
2017-07-15T08:26:31.926Z,20192
2017-07-15T08:27:12.478Z,23168
2017-07-15T08:27:53.021Z,30880
2017-07-15T08:28:33.558Z,30944
2017-07-15T08:29:14.099Z,40736
2017-07-15T08:29:54.630Z,62112
2017-07-15T08:30:35.170Z,66336
2017-07-15T08:31:15.717Z,63328
2017-07-15T08:31:56.261Z,70656
2017-07-15T08:32:36.801Z,66368
2017-07-15T08:33:17.337Z,67040
2017-07-15T08:33:57.936Z,71904
2017-07-15T08:34:38.479Z,68640
2017-07-15T08:35:19.006Z,59040
2017-07-15T08:35:59.555Z,56480
2017-07-15T08:36:40.093Z,49216
2017-07-15T08:37:20.646Z,60192
2017-07-15T08:38:01.193Z,74624
2017-07-15T08:38:41.726Z,70176
2017-07-15T08:39:22.271Z,73696
2017-07-15T08:40:02.819Z,72096
2017-07-15T08:40:43.365Z,64320
2017-07-15T08:41:23.902Z,56352
2017-07-15T08:42:04.468Z,58624
2017-07-15T08:42:44.994Z,66560
2017-07-15T08:43:25.535Z,61216
2017-07-15T08:44:06.081Z,60416
2017-07-15T08:44:46.632Z,62976
2017-07-15T08:45:27.177Z,65600
2017-07-15T08:46:07.722Z,61376
2017-07-15T08:46:48.270Z,61152
2017-07-15T08:47:28.817Z,64160
2017-07-15T08:48:09.367Z,69536
2017-07-15T08:48:49.908Z,73696
2017-07-15T08:49:30.492Z,73728
2017-07-15T08:50:11.045Z,74816
2017-07-15T08:50:51.623Z,74176
2017-07-15T08:51:32.131Z,74752
2017-07-15T08:52:12.679Z,69728
2017-07-15T08:52:53.256Z,7352
2017-07-15T08:53:33.779Z,5604
2017-07-15T08:54:14.342Z,76544
2017-07-15T08:54:54.886Z,66304
2017-07-15T08:55:35.430Z,70016
2017-07-15T08:56:15.979Z,73312
2017-07-15T08:56:56.599Z,72320
2017-07-15T08:57:37.141Z,9412
2017-07-15T08:58:17.691Z,72928
2017-07-15T08:58:58.238Z,8120
2017-07-15T08:59:38.794Z,77152
2017-07-15T09:00:19.329Z,77856
2017-07-15T09:00:59.860Z,77376
2017-07-15T09:01:40.409Z,76896
2017-07-15T09:02:20.945Z,78464
2017-07-15T09:03:01.492Z,78080
2017-07-15T09:03:42.043Z,77824
2017-07-15T09:04:22.591Z,74720
2017-07-15T09:05:03.148Z,73696
2017-07-15T09:05:43.696Z,74304
2017-07-15T09:06:24.251Z,73984
2017-07-15T09:07:04.797Z,76736
2017-07-15T09:07:45.349Z,73792
2017-07-15T09:08:25.895Z,56160
2017-07-15T09:09:06.488Z,76416
2017-07-15T09:09:47.021Z,75904
2017-07-15T09:10:27.566Z,73472
2017-07-15T09:11:08.110Z,72224
2017-07-15T09:11:48.660Z,72864
2017-07-15T09:12:29.206Z,75040
2017-07-15T09:13:09.755Z,77152
2017-07-15T09:13:50.302Z,79232
2017-07-15T09:14:30.854Z,68544
2017-07-15T09:15:11.408Z,43680
2017-07-15T09:15:51.955Z,34400
2017-07-15T09:16:32.505Z,6816
2017-07-15T09:17:13.058Z,34752
2017-07-15T09:17:53.618Z,26048
2017-07-15T09:18:34.165Z,18848
2017-07-15T09:19:14.714Z,12336
2017-07-15T09:19:55.265Z,11588